createdAt,value
2022-08-17T00:00:13.608Z,5.43
2022-08-17T00:03:17.174Z,5.57
2022-08-17T00:06:03.936Z,6.20
2022-08-17T00:08:37.563Z,5.22
2022-08-17T00:11:11.546Z,5.32
2022-08-17T00:13:42.653Z,5.60
2022-08-17T00:16:21.032Z,5.07
2022-08-17T00:19:11.699Z,5.20
2022-08-17T00:21:59.991Z,5.50
2022-08-17T00:26:56.590Z,5.97
2022-08-17T00:29:23.710Z,6.93
2022-08-17T00:31:51.611Z,6.50
2022-08-17T00:34:19.106Z,7.25
2022-08-17T00:36:46.312Z,7.80
2022-08-17T00:39:13.438Z,7.00
2022-08-17T00:41:42.548Z,6.68
2022-08-17T00:44:11.074Z,7.13
2022-08-17T00:46:42.270Z,6.18
2022-08-17T00:49:11.810Z,6.78
2022-08-17T00:51:44.380Z,6.63
2022-08-17T00:54:23.824Z,6.55
2022-08-17T00:56:56.937Z,7.13
2022-08-17T00:59:27.944Z,7.25
2022-08-17T01:01:55.073Z,7.55
2022-08-17T01:04:22.975Z,7.78
2022-08-17T01:06:51.328Z,6.97
2022-08-17T01:09:19.754Z,7.10
2022-08-17T01:11:52.439Z,7.25
2022-08-17T01:14:21.848Z,6.90
2022-08-17T01:16:51.392Z,7.45
2022-08-17T01:19:22.073Z,6.85
2022-08-17T01:22:12.979Z,7.30
2022-08-17T01:24:43.316Z,7.45
2022-08-17T01:27:11.413Z,8.30
2022-08-17T01:29:41.263Z,7.35
2022-08-17T01:32:09.479Z,7.57
2022-08-17T01:34:43.639Z,8.18
2022-08-17T01:37:19.085Z,8.10
2022-08-17T01:39:52.722Z,8.07
2022-08-17T01:42:30.871Z,8.13
2022-08-17T01:45:02.477Z,7.53
2022-08-17T01:47:29.909Z,7.15
2022-08-17T01:49:58.313Z,7.40
2022-08-17T01:52:25.519Z,6.95
2022-08-17T01:54:53.504Z,6.97
2022-08-17T01:57:20.674Z,6.95
2022-08-17T01:59:47.888Z,7.35
2022-08-17T02:02:31.175Z,7.63
2022-08-17T02:04:59.218Z,7.00
2022-08-17T02:07:27.140Z,7.30
2022-08-17T02:09:54.747Z,7.00
2022-08-17T02:12:47.444Z,7.15
2022-08-17T02:15:12.668Z,7.32
2022-08-17T02:17:41.130Z,7.60
2022-08-17T02:20:09.914Z,7.47
2022-08-17T02:22:40.238Z,7.80
2022-08-17T02:25:09.769Z,7.78
2022-08-17T02:27:38.618Z,8.10
2022-08-17T02:31:00.886Z,7.40
2022-08-17T02:32:56.267Z,7.68
2022-08-17T02:35:24.029Z,7.82
2022-08-17T02:37:51.950Z,8.27
2022-08-17T02:40:36.213Z,7.88
2022-08-17T02:43:04.394Z,7.65
2022-08-17T02:45:31.563Z,8.80
2022-08-17T02:47:58.720Z,7.80
2022-08-17T02:50:26.526Z,8.05
2022-08-17T02:53:02.421Z,8.48
2022-08-17T02:55:36.181Z,8.07
2022-08-17T02:58:04.176Z,7.63
2022-08-17T03:00:35.619Z,8.00
2022-08-17T03:03:04.861Z,7.60
2022-08-17T03:05:34.026Z,8.32
2022-08-17T03:08:01.403Z,7.80
2022-08-17T03:10:29.889Z,7.20
2022-08-17T03:12:56.932Z,7.78
2022-08-17T03:15:27.106Z,8.73
2022-08-17T03:17:55.756Z,7.75
2022-08-17T03:20:25.134Z,7.82
2022-08-17T03:22:55.243Z,7.72
2022-08-17T03:25:32.378Z,7.30
2022-08-17T03:28:01.796Z,6.93
2022-08-17T03:30:29.988Z,8.20
2022-08-17T03:33:00.337Z,8.02
2022-08-17T04:34:27.440Z,8.65
2022-08-17T04:36:55.073Z,8.60
2022-08-17T04:39:24.268Z,8.25
2022-08-17T04:42:17.270Z,7.90
2022-08-17T04:44:44.684Z,8.23
2022-08-17T04:47:11.885Z,8.35
2022-08-17T04:49:40.381Z,7.88
2022-08-17T04:52:07.428Z,7.43
2022-08-17T04:54:54.509Z,7.07
2022-08-17T04:57:21.600Z,7.57
2022-08-17T04:59:48.661Z,6.45
2022-08-17T05:02:15.682Z,6.82
2022-08-17T05:04:42.710Z,6.65
2022-08-17T05:07:10.624Z,6.00
2022-08-17T05:09:38.626Z,8.00
2022-08-17T05:12:06.445Z,7.40
2022-08-17T05:14:34.014Z,7.03
2022-08-17T05:17:01.731Z,7.45
2022-08-17T05:19:34.138Z,7.13
2022-08-17T05:22:05.711Z,6.22
2022-08-17T05:24:42.578Z,6.20
2022-08-17T05:27:19.169Z,6.93
2022-08-17T05:29:46.643Z,7.18
2022-08-17T05:32:38.000Z,7.28
2022-08-17T05:35:01.824Z,7.60
2022-08-17T05:37:28.904Z,7.00
2022-08-17T05:39:56.090Z,7.22
2022-08-17T05:42:24.452Z,7.10
2022-08-17T05:44:51.679Z,7.20
2022-08-17T05:47:18.917Z,7.00
2022-08-17T05:49:49.055Z,7.20
2022-08-17T05:52:35.038Z,6.75
2022-08-17T05:55:10.986Z,7.32
2022-08-17T05:58:01.454Z,7.05
2022-08-17T06:00:37.175Z,7.07
2022-08-17T06:03:24.405Z,6.97
2022-08-17T06:05:58.617Z,6.90
2022-08-17T06:08:35.114Z,6.35
2022-08-17T06:11:10.935Z,7.20
2022-08-17T06:13:53.169Z,6.18
2022-08-17T06:16:34.405Z,6.80
2022-08-17T06:19:10.875Z,6.60
2022-08-17T06:21:42.727Z,6.18
2022-08-17T06:24:21.835Z,6.63
2022-08-17T06:26:50.137Z,6.27
2022-08-17T06:29:40.093Z,5.72
2022-08-17T06:34:41.400Z,5.15
2022-08-17T06:37:42.827Z,5.35
2022-08-17T06:40:50.320Z,4.80
2022-08-17T06:43:40.373Z,5.47
2022-08-17T06:46:22.030Z,4.88
2022-08-17T06:49:13.964Z,5.45
2022-08-17T06:51:52.281Z,4.78
2022-08-17T06:54:40.741Z,4.70
2022-08-17T06:57:28.541Z,4.22
2022-08-17T07:00:17.653Z,4.30
2022-08-17T07:02:55.738Z,4.10
2022-08-17T07:05:38.822Z,4.25
2022-08-17T07:08:18.690Z,3.65
2022-08-17T07:10:54.444Z,4.13
2022-08-17T07:13:33.363Z,3.90
2022-08-17T07:16:15.129Z,3.78
2022-08-17T07:18:43.983Z,4.25
2022-08-17T07:21:26.745Z,3.97
2022-08-17T07:24:29.198Z,3.65
2022-08-17T07:27:28.447Z,3.80
2022-08-17T07:30:10.643Z,3.90
2022-08-17T07:32:45.363Z,4.07
2022-08-17T07:35:18.265Z,3.50
2022-08-17T07:38:07.302Z,3.40
2022-08-17T07:41:13.836Z,3.35
2022-08-17T07:43:40.998Z,3.25
2022-08-17T07:46:43.289Z,3.38
2022-08-17T07:49:10.402Z,3.90
2022-08-17T07:51:59.986Z,3.40
2022-08-17T07:54:42.532Z,3.53
2022-08-17T07:57:15.363Z,3.73
2022-08-17T08:00:02.359Z,3.75
2022-08-17T08:02:45.787Z,3.70
2022-08-17T08:05:46.619Z,3.30
2022-08-17T08:08:30.302Z,3.90
2022-08-17T08:11:07.374Z,3.22
2022-08-17T08:13:36.202Z,3.45
2022-08-17T08:16:20.100Z,3.65
2022-08-17T08:18:56.085Z,3.33
2022-08-17T08:21:59.241Z,3.60
2022-08-17T08:24:52.377Z,4.05
2022-08-17T08:27:52.289Z,3.72
2022-08-17T08:33:04.444Z,3.80
2022-08-17T08:35:45.789Z,3.33
2022-08-17T08:38:37.933Z,3.38
2022-08-17T08:41:23.095Z,3.10
2022-08-17T08:44:21.823Z,3.30
2022-08-17T08:47:25.298Z,3.33
2022-08-17T08:50:37.437Z,3.10
2022-08-17T08:53:12.253Z,3.35
2022-08-17T08:56:04.697Z,3.60
2022-08-17T08:58:43.677Z,3.30
2022-08-17T09:01:26.037Z,3.08
2022-08-17T09:04:24.812Z,3.13
2022-08-17T09:07:17.403Z,3.13
2022-08-17T09:09:58.693Z,3.08
2022-08-17T09:12:47.798Z,3.08
2022-08-17T09:15:33.637Z,3.67
2022-08-17T09:19:03.121Z,3.67
2022-08-17T09:21:58.186Z,3.03
2022-08-17T09:24:49.275Z,3.55
2022-08-17T09:29:57.893Z,2.92
2022-08-17T09:32:29.227Z,3.15
2022-08-17T09:35:02.203Z,3.08
2022-08-17T09:37:41.967Z,3.20
2022-08-17T09:40:33.990Z,3.40
2022-08-17T09:43:22.615Z,2.85
2022-08-17T09:45:57.399Z,2.88
2022-08-17T09:48:33.291Z,3.22
2022-08-17T09:51:15.630Z,2.90
2022-08-17T09:53:44.685Z,2.90
2022-08-17T09:56:18.160Z,3.10
2022-08-17T09:59:06.441Z,2.83
2022-08-17T10:01:40.034Z,3.10
2022-08-17T10:04:20.312Z,2.75
2022-08-17T10:07:11.693Z,2.97
2022-08-17T10:10:14.402Z,3.10
2022-08-17T10:13:03.359Z,2.80
2022-08-17T10:15:53.924Z,2.88
2022-08-17T10:21:32.495Z,3.20
2022-08-17T10:24:39.476Z,2.72
2022-08-17T10:27:45.131Z,2.58
2022-08-17T10:30:17.803Z,2.75
2022-08-17T10:32:55.921Z,2.70
2022-08-17T10:35:42.219Z,2.83
2022-08-17T10:38:25.523Z,3.15
2022-08-17T10:41:04.602Z,2.85
2022-08-17T10:43:34.542Z,2.87
2022-08-17T10:49:17.232Z,3.22
2022-08-17T10:51:48.066Z,2.97
2022-08-17T10:54:24.374Z,3.25
2022-08-17T10:56:56.987Z,3.03
2022-08-17T10:59:36.221Z,2.75
2022-08-17T11:02:32.127Z,2.78
2022-08-17T11:05:28.822Z,2.65
2022-08-17T11:08:17.532Z,2.60
2022-08-17T11:10:52.301Z,2.92
2022-08-17T11:13:23.269Z,2.72
2022-08-17T11:16:22.021Z,2.72
2022-08-17T11:19:10.803Z,2.53
2022-08-17T11:22:11.937Z,2.72
2022-08-17T11:24:48.112Z,2.67
2022-08-17T11:27:32.543Z,3.10
2022-08-17T11:30:11.082Z,2.65
2022-08-17T11:32:54.720Z,2.65
2022-08-17T11:35:22.465Z,2.47
2022-08-17T11:37:52.646Z,2.90
2022-08-17T11:40:35.160Z,2.80
2022-08-17T11:43:08.363Z,3.20
2022-08-17T11:45:44.301Z,2.60
2022-08-17T11:48:51.422Z,2.72
2022-08-17T11:51:34.316Z,2.90
2022-08-17T11:54:34.397Z,3.08
2022-08-17T11:57:27.665Z,2.97
2022-08-17T12:00:12.619Z,3.03
2022-08-17T12:02:48.806Z,2.70
2022-08-17T12:05:21.179Z,2.47
2022-08-17T12:07:52.415Z,2.75
2022-08-17T12:10:30.508Z,3.03
2022-08-17T12:12:59.579Z,2.40
2022-08-17T12:15:34.693Z,2.65
2022-08-17T12:18:01.939Z,2.50
2022-08-17T12:20:34.918Z,2.55
2022-08-17T12:23:17.052Z,2.78
2022-08-17T12:25:47.788Z,2.70
2022-08-17T12:28:30.478Z,3.00
2022-08-17T12:31:06.249Z,2.90
2022-08-17T12:33:35.930Z,2.85
2022-08-17T12:38:38.054Z,2.80
2022-08-17T12:41:25.905Z,2.92
2022-08-17T12:44:02.465Z,2.92
2022-08-17T12:46:55.619Z,2.83
2022-08-17T12:49:26.980Z,2.80
2022-08-17T12:52:12.547Z,2.60
2022-08-17T12:54:51.644Z,3.03
2022-08-17T12:57:26.040Z,3.08
2022-08-17T13:00:20.124Z,2.63
2022-08-17T13:02:51.069Z,2.70
2022-08-17T13:05:37.340Z,2.70
2022-08-17T13:08:20.749Z,2.97
2022-08-17T13:10:57.084Z,3.08
2022-08-17T13:13:27.063Z,3.00
2022-08-17T13:16:02.277Z,2.70
2022-08-17T13:18:47.078Z,2.97
2022-08-17T13:21:30.702Z,2.72
2022-08-17T13:23:59.248Z,3.17
2022-08-17T13:26:35.217Z,2.78
2022-08-17T13:29:05.895Z,3.03
2022-08-17T13:31:53.018Z,2.63
2022-08-17T13:34:27.046Z,2.70
2022-08-17T13:37:30.006Z,2.42
2022-08-17T13:40:00.266Z,2.35
2022-08-17T13:42:33.382Z,2.60
2022-08-17T13:45:36.053Z,2.75
2022-08-17T13:48:15.943Z,2.75
2022-08-17T13:50:43.205Z,2.28
2022-08-17T13:53:32.828Z,2.20
2022-08-17T13:56:00.120Z,2.40
2022-08-17T13:58:28.764Z,2.38
2022-08-17T14:00:56.481Z,2.17
2022-08-17T14:03:24.884Z,2.58
2022-08-17T14:05:53.110Z,3.00
2022-08-17T14:08:21.067Z,2.60
2022-08-17T14:10:58.206Z,2.83
2022-08-17T14:13:25.436Z,2.72
2022-08-17T14:15:54.890Z,2.55
2022-08-17T14:18:52.007Z,2.50
2022-08-17T14:21:11.963Z,2.78
2022-08-17T14:23:39.434Z,2.63
2022-08-17T14:26:06.694Z,2.70
2022-08-17T14:28:33.756Z,2.70
2022-08-17T14:31:03.716Z,2.72
2022-08-17T14:33:30.766Z,2.47
2022-08-17T14:35:58.258Z,2.47
2022-08-17T14:38:25.343Z,2.70
2022-08-17T14:40:52.757Z,2.60
2022-08-17T14:43:20.569Z,2.80
2022-08-17T14:45:47.684Z,2.70
2022-08-17T14:48:14.887Z,3.00
2022-08-17T14:50:44.244Z,2.58
2022-08-17T14:53:13.621Z,3.05
2022-08-17T14:55:40.789Z,2.60
2022-08-17T14:58:09.166Z,2.63
2022-08-17T15:00:37.567Z,2.70
2022-08-17T15:03:05.492Z,2.90
2022-08-17T15:05:35.279Z,2.58
2022-08-17T15:10:30.479Z,2.72
2022-08-17T15:12:58.522Z,2.70
2022-08-17T15:15:25.915Z,2.63
2022-08-17T15:17:53.227Z,3.00
2022-08-17T15:20:27.757Z,2.90
2022-08-17T15:22:57.393Z,2.55
2022-08-17T15:25:27.848Z,2.75
2022-08-17T15:27:56.122Z,2.42
2022-08-17T15:30:26.700Z,2.58
2022-08-17T15:32:55.239Z,2.78
2022-08-17T15:35:29.313Z,2.73
2022-08-17T15:38:07.878Z,2.92
2022-08-17T15:40:39.456Z,2.92
2022-08-17T15:43:13.228Z,2.67
2022-08-17T15:45:41.106Z,2.55
2022-08-17T15:48:09.148Z,2.90
2022-08-17T15:50:36.686Z,2.80
2022-08-17T15:53:05.031Z,2.60
2022-08-17T15:55:33.537Z,2.90
2022-08-17T15:58:01.942Z,2.78
2022-08-17T16:00:29.669Z,2.90
2022-08-17T16:03:45.399Z,3.25
2022-08-17T16:05:47.486Z,2.92
2022-08-17T16:08:20.019Z,3.00
2022-08-17T16:10:49.530Z,3.20
2022-08-17T16:13:18.173Z,2.88
2022-08-17T16:15:56.669Z,2.53
2022-08-17T16:18:26.668Z,2.60
2022-08-17T16:23:20.898Z,2.40
2022-08-17T16:25:52.798Z,2.50
2022-08-17T16:28:22.738Z,2.58
2022-08-17T16:31:03.461Z,2.88
2022-08-17T16:33:30.508Z,2.75
2022-08-17T16:35:57.671Z,2.80
2022-08-17T16:38:24.808Z,2.63
2022-08-17T16:40:51.890Z,2.47
2022-08-17T16:43:18.914Z,3.00
2022-08-17T16:45:51.877Z,3.03
2022-08-17T16:48:19.893Z,2.67
2022-08-17T16:50:59.942Z,3.03
2022-08-17T16:53:31.680Z,2.60
2022-08-17T16:55:58.809Z,2.47
2022-08-17T16:58:25.847Z,2.92
2022-08-17T17:03:29.294Z,2.90
2022-08-17T17:06:07.494Z,2.83
2022-08-17T17:08:58.773Z,2.95
2022-08-17T17:11:41.585Z,3.70
2022-08-17T17:14:28.473Z,2.63
2022-08-17T17:17:10.914Z,2.65
2022-08-17T17:20:05.766Z,2.78
2022-08-17T17:23:07.835Z,2.80
2022-08-17T17:25:54.946Z,2.85
2022-08-17T17:28:33.647Z,2.80
2022-08-17T17:31:08.169Z,2.45
2022-08-17T17:33:50.667Z,2.90
2022-08-17T17:36:40.130Z,2.72
2022-08-17T17:39:15.408Z,2.72
2022-08-17T17:41:53.034Z,3.00
2022-08-17T17:44:41.063Z,3.20
2022-08-17T17:47:08.632Z,2.50
2022-08-17T17:49:45.449Z,2.72
2022-08-17T17:52:21.051Z,2.92
2022-08-17T17:54:54.150Z,2.78
2022-08-17T17:57:25.015Z,2.50
2022-08-17T18:00:10.366Z,2.60
2022-08-17T18:02:55.364Z,2.80
2022-08-17T18:05:34.460Z,2.65
2022-08-17T18:08:46.703Z,2.70
2022-08-17T18:11:36.357Z,3.42
2022-08-17T18:14:14.507Z,2.83
2022-08-17T18:16:46.487Z,2.67
2022-08-17T18:19:20.876Z,2.80
2022-08-17T18:21:54.596Z,3.08
2022-08-17T18:24:35.091Z,3.03
2022-08-17T18:27:08.668Z,3.05
2022-08-17T18:29:44.335Z,3.28
2022-08-17T18:32:28.634Z,3.30
2022-08-17T18:35:28.001Z,3.58
2022-08-17T18:38:20.085Z,3.40
2022-08-17T18:41:01.863Z,3.20
2022-08-17T18:43:44.265Z,3.58
2022-08-17T18:46:28.869Z,3.28
2022-08-17T18:49:00.742Z,3.08
2022-08-17T18:51:42.336Z,3.40
2022-08-17T18:54:16.734Z,3.20
2022-08-17T18:56:48.938Z,3.42
2022-08-17T18:59:23.274Z,3.65
2022-08-17T19:02:20.679Z,3.65
2022-08-17T19:05:08.169Z,3.80
2022-08-17T19:07:45.580Z,3.22
2022-08-17T19:10:24.304Z,3.45
2022-08-17T19:13:24.510Z,3.33
2022-08-17T19:16:15.763Z,3.45
2022-08-17T19:18:54.425Z,3.67
2022-08-17T19:21:33.461Z,3.28
2022-08-17T19:24:30.417Z,3.30
2022-08-17T19:27:19.815Z,3.50
2022-08-17T19:30:01.717Z,3.50
2022-08-17T19:32:34.784Z,3.85
2022-08-17T19:35:04.288Z,3.40
2022-08-17T19:37:50.166Z,3.80
2022-08-17T19:40:54.056Z,3.60
2022-08-17T19:43:59.351Z,3.70
2022-08-17T19:46:35.700Z,4.00
2022-08-17T19:49:32.988Z,3.67
2022-08-17T19:52:27.292Z,3.35
2022-08-17T19:55:21.045Z,3.67
2022-08-17T19:57:52.911Z,3.35
2022-08-17T20:00:20.139Z,3.65
2022-08-17T20:03:16.427Z,3.80
2022-08-17T20:06:15.082Z,3.15
2022-08-17T20:09:01.263Z,3.50
2022-08-17T20:11:48.904Z,3.83
2022-08-17T20:14:22.102Z,3.80
2022-08-17T20:16:49.427Z,4.03
2022-08-17T20:19:56.496Z,3.42
2022-08-17T20:22:30.458Z,4.18
2022-08-17T20:27:47.885Z,4.10
2022-08-17T20:30:34.957Z,4.10
2022-08-17T20:33:02.847Z,4.20
2022-08-17T20:35:32.771Z,3.67
2022-08-17T20:38:12.932Z,3.92
2022-08-17T20:43:33.061Z,4.05
2022-08-17T20:46:21.602Z,3.83
2022-08-17T20:48:57.058Z,4.65
2022-08-17T20:51:29.794Z,4.68
2022-08-17T20:54:19.587Z,4.35
2022-08-17T20:56:49.900Z,4.22
2022-08-17T20:59:25.762Z,4.88
2022-08-17T21:02:21.947Z,4.07
2022-08-17T21:04:53.032Z,3.80
2022-08-17T21:07:43.431Z,4.07
2022-08-17T21:10:19.692Z,4.72
2022-08-17T21:12:53.925Z,4.10
2022-08-17T21:15:42.285Z,4.07
2022-08-17T21:18:27.442Z,4.13
2022-08-17T21:21:18.048Z,4.30
2022-08-17T21:24:02.087Z,4.22
2022-08-17T21:26:50.590Z,3.88
2022-08-17T21:29:31.046Z,4.40
2022-08-17T21:32:00.637Z,4.32
2022-08-17T21:34:33.296Z,4.57
2022-08-17T21:37:23.393Z,4.57
2022-08-17T21:42:32.234Z,4.15
2022-08-17T21:45:12.589Z,4.03
2022-08-17T21:47:43.555Z,4.70
2022-08-17T21:50:20.328Z,4.93
2022-08-17T21:52:48.890Z,4.38
2022-08-17T21:55:29.824Z,4.50
2022-08-17T21:58:19.609Z,4.30
2022-08-17T22:00:46.720Z,4.70
2022-08-17T22:03:26.257Z,4.50
2022-08-17T22:05:53.430Z,4.40
2022-08-17T22:08:23.740Z,4.03
2022-08-17T22:10:59.644Z,4.68
2022-08-17T22:13:29.637Z,4.80
2022-08-17T22:18:58.242Z,3.83
2022-08-17T22:21:26.466Z,3.90
2022-08-17T22:24:06.827Z,3.65
2022-08-17T22:27:05.189Z,4.00
2022-08-17T22:29:57.665Z,4.50
2022-08-17T22:32:46.516Z,4.53
2022-08-17T22:35:34.955Z,5.45
2022-08-17T22:38:20.510Z,5.72
2022-08-17T22:40:52.050Z,5.65
2022-08-17T22:43:28.965Z,6.55
2022-08-17T22:46:00.207Z,5.90
2022-08-17T22:48:29.584Z,6.80
2022-08-17T22:51:13.708Z,6.57
2022-08-17T22:54:12.481Z,6.78
2022-08-17T22:57:18.907Z,7.13
2022-08-17T22:59:50.637Z,7.35
2022-08-17T23:02:23.729Z,7.43
2022-08-17T23:05:00.401Z,7.53
2022-08-17T23:07:27.472Z,8.13
2022-08-17T23:09:54.653Z,7.35
2022-08-17T23:12:26.611Z,6.50
2022-08-17T23:15:01.407Z,7.43
2022-08-17T23:17:35.073Z,7.20
2022-08-17T23:20:08.473Z,7.43
2022-08-17T23:22:38.296Z,6.78
2022-08-17T23:25:28.238Z,6.90
2022-08-17T23:27:57.542Z,7.45
2022-08-17T23:30:25.746Z,7.57
2022-08-17T23:32:59.536Z,7.63
2022-08-17T23:35:39.042Z,8.20
2022-08-17T23:38:12.307Z,7.63
2022-08-17T23:40:40.612Z,7.60
2022-08-17T23:43:23.777Z,7.20
2022-08-17T23:45:54.246Z,6.90
2022-08-17T23:48:28.555Z,7.13
2022-08-17T23:51:06.040Z,7.00
2022-08-17T23:53:35.052Z,7.05
2022-08-17T23:56:04.000Z,7.25
2022-08-17T23:58:38.663Z,7.28
